sensor_id;sensor_type;location;lat;lon;timestamp;P1;durP1;ratioP1;P2;durP2;ratioP2
26319;SDS011;14024;52.226;5.200;2024-02-26T00:00:27;10.35;;;6.15;;
26319;SDS011;14024;52.226;5.200;2024-02-26T00:02:54;10.45;;;6.75;;
26319;SDS011;14024;52.226;5.200;2024-02-26T00:05:19;8.40;;;5.78;;
26319;SDS011;14024;52.226;5.200;2024-02-26T00:07:44;8.55;;;5.93;;
26319;SDS011;14024;52.226;5.200;2024-02-26T00:10:10;11.52;;;6.22;;
26319;SDS011;14024;52.226;5.200;2024-02-26T00:12:35;9.15;;;5.95;;
26319;SDS011;14024;52.226;5.200;2024-02-26T00:15:01;12.93;;;6.30;;
26319;SDS011;14024;52.226;5.200;2024-02-26T00:17:26;11.18;;;6.43;;
26319;SDS011;14024;52.226;5.200;2024-02-26T00:19:51;10.90;;;6.93;;
26319;SDS011;14024;52.226;5.200;2024-02-26T00:22:18;17.48;;;7.95;;
26319;SDS011;14024;52.226;5.200;2024-02-26T00:24:43;12.68;;;7.03;;
26319;SDS011;14024;52.226;5.200;2024-02-26T00:27:09;11.05;;;6.88;;
26319;SDS011;14024;52.226;5.200;2024-02-26T00:29:34;13.52;;;7.70;;
26319;SDS011;14024;52.226;5.200;2024-02-26T00:31:59;11.68;;;7.40;;
26319;SDS011;14024;52.226;5.200;2024-02-26T00:34:25;13.80;;;7.90;;
26319;SDS011;14024;52.226;5.200;2024-02-26T00:36:50;13.20;;;7.75;;
26319;SDS011;14024;52.226;5.200;2024-02-26T00:39:15;11.30;;;7.80;;
26319;SDS011;14024;52.226;5.200;2024-02-26T00:41:41;12.73;;;8.35;;
26319;SDS011;14024;52.226;5.200;2024-02-26T00:44:06;13.30;;;8.30;;
26319;SDS011;14024;52.226;5.200;2024-02-26T00:46:31;14.95;;;8.02;;
26319;SDS011;14024;52.226;5.200;2024-02-26T00:48:57;12.43;;;7.78;;
26319;SDS011;14024;52.226;5.200;2024-02-26T00:51:22;14.60;;;8.98;;
26319;SDS011;14024;52.226;5.200;2024-02-26T00:53:48;13.80;;;8.05;;
26319;SDS011;14024;52.226;5.200;2024-02-26T00:56:13;11.98;;;7.97;;
26319;SDS011;14024;52.226;5.200;2024-02-26T00:58:39;12.27;;;7.82;;
26319;SDS011;14024;52.226;5.200;2024-02-26T01:01:04;13.15;;;8.13;;
26319;SDS011;14024;52.226;5.200;2024-02-26T01:03:30;16.80;;;8.77;;
26319;SDS011;14024;52.226;5.200;2024-02-26T01:05:55;14.98;;;8.02;;
26319;SDS011;14024;52.226;5.200;2024-02-26T01:08:20;15.63;;;8.57;;
26319;SDS011;14024;52.226;5.200;2024-02-26T01:10:54;14.20;;;8.40;;
26319;SDS011;14024;52.226;5.200;2024-02-26T01:13:23;15.07;;;8.73;;
26319;SDS011;14024;52.226;5.200;2024-02-26T01:15:48;16.83;;;9.23;;
26319;SDS011;14024;52.226;5.200;2024-02-26T01:18:13;14.48;;;8.40;;
26319;SDS011;14024;52.226;5.200;2024-02-26T01:20:39;15.52;;;9.20;;
26319;SDS011;14024;52.226;5.200;2024-02-26T01:23:04;15.55;;;9.25;;
26319;SDS011;14024;52.226;5.200;2024-02-26T01:25:29;16.60;;;9.27;;
26319;SDS011;14024;52.226;5.200;2024-02-26T01:27:55;18.10;;;9.52;;
26319;SDS011;14024;52.226;5.200;2024-02-26T01:30:21;16.58;;;9.85;;
26319;SDS011;14024;52.226;5.200;2024-02-26T01:32:47;20.58;;;10.55;;
26319;SDS011;14024;52.226;5.200;2024-02-26T01:35:12;20.38;;;10.77;;
26319;SDS011;14024;52.226;5.200;2024-02-26T01:37:37;23.00;;;10.48;;
26319;SDS011;14024;52.226;5.200;2024-02-26T01:40:03;16.98;;;10.20;;
26319;SDS011;14024;52.226;5.200;2024-02-26T01:42:31;18.10;;;10.10;;
26319;SDS011;14024;52.226;5.200;2024-02-26T01:44:57;20.90;;;11.23;;
26319;SDS011;14024;52.226;5.200;2024-02-26T01:47:23;22.15;;;10.93;;
26319;SDS011;14024;52.226;5.200;2024-02-26T01:49:48;20.05;;;10.73;;
26319;SDS011;14024;52.226;5.200;2024-02-26T01:52:14;23.25;;;11.77;;
26319;SDS011;14024;52.226;5.200;2024-02-26T01:54:40;21.65;;;11.60;;
26319;SDS011;14024;52.226;5.200;2024-02-26T01:57:07;19.98;;;10.85;;
26319;SDS011;14024;52.226;5.200;2024-02-26T01:59:33;19.15;;;10.68;;
26319;SDS011;14024;52.226;5.200;2024-02-26T02:02:01;19.35;;;10.93;;
26319;SDS011;14024;52.226;5.200;2024-02-26T02:04:30;23.40;;;11.90;;
26319;SDS011;14024;52.226;5.200;2024-02-26T02:06:55;17.80;;;10.50;;
26319;SDS011;14024;52.226;5.200;2024-02-26T02:09:25;21.00;;;11.93;;
26319;SDS011;14024;52.226;5.200;2024-02-26T02:11:51;23.83;;;11.73;;
26319;SDS011;14024;52.226;5.200;2024-02-26T02:14:16;21.85;;;10.80;;
26319;SDS011;14024;52.226;5.200;2024-02-26T02:16:41;20.30;;;10.73;;
26319;SDS011;14024;52.226;5.200;2024-02-26T02:19:07;19.67;;;11.18;;
26319;SDS011;14024;52.226;5.200;2024-02-26T02:21:32;21.83;;;11.13;;
26319;SDS011;14024;52.226;5.200;2024-02-26T02:23:57;20.00;;;11.57;;
26319;SDS011;14024;52.226;5.200;2024-02-26T02:26:23;18.90;;;10.93;;
26319;SDS011;14024;52.226;5.200;2024-02-26T02:28:48;21.58;;;11.90;;
26319;SDS011;14024;52.226;5.200;2024-02-26T02:31:14;21.00;;;10.45;;
26319;SDS011;14024;52.226;5.200;2024-02-26T02:33:40;19.55;;;10.55;;
26319;SDS011;14024;52.226;5.200;2024-02-26T02:36:06;22.88;;;11.00;;
26319;SDS011;14024;52.226;5.200;2024-02-26T02:38:34;20.27;;;10.55;;
26319;SDS011;14024;52.226;5.200;2024-02-26T02:41:00;18.48;;;10.60;;
26319;SDS011;14024;52.226;5.200;2024-02-26T02:43:26;19.38;;;10.65;;
26319;SDS011;14024;52.226;5.200;2024-02-26T02:45:51;20.67;;;11.50;;
26319;SDS011;14024;52.226;5.200;2024-02-26T02:48:16;20.42;;;11.32;;
26319;SDS011;14024;52.226;5.200;2024-02-26T02:50:42;21.05;;;12.00;;
26319;SDS011;14024;52.226;5.200;2024-02-26T02:53:08;23.50;;;11.35;;
26319;SDS011;14024;52.226;5.200;2024-02-26T02:55:33;21.05;;;10.40;;
26319;SDS011;14024;52.226;5.200;2024-02-26T02:57:59;21.20;;;11.35;;
26319;SDS011;14024;52.226;5.200;2024-02-26T03:00:24;17.95;;;10.32;;
26319;SDS011;14024;52.226;5.200;2024-02-26T03:02:50;20.83;;;10.80;;
26319;SDS011;14024;52.226;5.200;2024-02-26T03:05:15;24.83;;;11.35;;
26319;SDS011;14024;52.226;5.200;2024-02-26T03:07:40;20.85;;;11.15;;
26319;SDS011;14024;52.226;5.200;2024-02-26T03:10:06;21.65;;;10.30;;
26319;SDS011;14024;52.226;5.200;2024-02-26T03:12:33;20.80;;;11.00;;
26319;SDS011;14024;52.226;5.200;2024-02-26T03:14:59;20.42;;;10.93;;
26319;SDS011;14024;52.226;5.200;2024-02-26T03:17:27;21.48;;;11.63;;
26319;SDS011;14024;52.226;5.200;2024-02-26T03:19:55;24.23;;;11.30;;
26319;SDS011;14024;52.226;5.200;2024-02-26T03:22:21;23.65;;;11.73;;
26319;SDS011;14024;52.226;5.200;2024-02-26T03:24:46;23.40;;;12.27;;
26319;SDS011;14024;52.226;5.200;2024-02-26T03:27:12;23.45;;;11.73;;
26319;SDS011;14024;52.226;5.200;2024-02-26T03:29:38;23.40;;;12.80;;
26319;SDS011;14024;52.226;5.200;2024-02-26T03:32:03;23.15;;;11.82;;
26319;SDS011;14024;52.226;5.200;2024-02-26T03:34:29;23.10;;;12.40;;
26319;SDS011;14024;52.226;5.200;2024-02-26T03:36:55;24.42;;;11.88;;
26319;SDS011;14024;52.226;5.200;2024-02-26T03:39:21;22.48;;;11.98;;
26319;SDS011;14024;52.226;5.200;2024-02-26T03:41:47;22.98;;;12.13;;
26319;SDS011;14024;52.226;5.200;2024-02-26T03:44:12;23.95;;;12.45;;
26319;SDS011;14024;52.226;5.200;2024-02-26T03:46:38;23.83;;;12.38;;
26319;SDS011;14024;52.226;5.200;2024-02-26T03:49:03;23.90;;;12.18;;
26319;SDS011;14024;52.226;5.200;2024-02-26T03:51:28;23.67;;;12.27;;
26319;SDS011;14024;52.226;5.200;2024-02-26T03:53:56;21.70;;;12.05;;
26319;SDS011;14024;52.226;5.200;2024-02-26T03:56:22;23.20;;;12.48;;
26319;SDS011;14024;52.226;5.200;2024-02-26T03:58:48;25.77;;;13.00;;
26319;SDS011;14024;52.226;5.200;2024-02-26T04:01:13;23.80;;;12.23;;
26319;SDS011;14024;52.226;5.200;2024-02-26T04:03:39;29.38;;;12.02;;
26319;SDS011;14024;52.226;5.200;2024-02-26T04:06:04;22.65;;;11.45;;
26319;SDS011;14024;52.226;5.200;2024-02-26T04:08:29;22.38;;;11.32;;
26319;SDS011;14024;52.226;5.200;2024-02-26T04:10:55;23.10;;;12.27;;
26319;SDS011;14024;52.226;5.200;2024-02-26T04:13:21;19.63;;;11.20;;
26319;SDS011;14024;52.226;5.200;2024-02-26T04:15:47;23.38;;;11.93;;
26319;SDS011;14024;52.226;5.200;2024-02-26T04:18:12;25.77;;;12.30;;
26319;SDS011;14024;52.226;5.200;2024-02-26T04:20:39;24.58;;;13.00;;
26319;SDS011;14024;52.226;5.200;2024-02-26T04:23:06;22.10;;;12.13;;
26319;SDS011;14024;52.226;5.200;2024-02-26T04:25:32;20.92;;;10.57;;
26319;SDS011;14024;52.226;5.200;2024-02-26T04:27:57;21.92;;;11.10;;
26319;SDS011;14024;52.226;5.200;2024-02-26T04:30:22;23.77;;;11.98;;
26319;SDS011;14024;52.226;5.200;2024-02-26T04:32:48;22.70;;;11.73;;
26319;SDS011;14024;52.226;5.200;2024-02-26T04:35:14;22.65;;;12.15;;
26319;SDS011;14024;52.226;5.200;2024-02-26T04:37:39;23.92;;;12.15;;
26319;SDS011;14024;52.226;5.200;2024-02-26T04:40:05;23.30;;;12.45;;
26319;SDS011;14024;52.226;5.200;2024-02-26T04:42:31;20.95;;;11.45;;
26319;SDS011;14024;52.226;5.200;2024-02-26T04:44:56;22.00;;;11.20;;
26319;SDS011;14024;52.226;5.200;2024-02-26T04:47:23;24.25;;;12.02;;
26319;SDS011;14024;52.226;5.200;2024-02-26T04:49:51;23.73;;;12.88;;
26319;SDS011;14024;52.226;5.200;2024-02-26T04:52:16;23.77;;;12.05;;
26319;SDS011;14024;52.226;5.200;2024-02-26T04:54:42;22.98;;;11.98;;
26319;SDS011;14024;52.226;5.200;2024-02-26T04:57:07;23.23;;;12.15;;
26319;SDS011;14024;52.226;5.200;2024-02-26T04:59:32;23.20;;;11.32;;
26319;SDS011;14024;52.226;5.200;2024-02-26T05:02:01;23.50;;;12.00;;
26319;SDS011;14024;52.226;5.200;2024-02-26T05:04:26;26.85;;;13.23;;
26319;SDS011;14024;52.226;5.200;2024-02-26T05:06:51;27.85;;;13.00;;
26319;SDS011;14024;52.226;5.200;2024-02-26T05:09:18;27.48;;;12.93;;
26319;SDS011;14024;52.226;5.200;2024-02-26T05:11:43;24.40;;;12.90;;
26319;SDS011;14024;52.226;5.200;2024-02-26T05:14:09;25.17;;;12.90;;
26319;SDS011;14024;52.226;5.200;2024-02-26T05:16:35;26.75;;;13.23;;
26319;SDS011;14024;52.226;5.200;2024-02-26T05:19:00;27.20;;;12.63;;
26319;SDS011;14024;52.226;5.200;2024-02-26T05:21:26;29.73;;;13.25;;
26319;SDS011;14024;52.226;5.200;2024-02-26T05:23:51;28.38;;;12.98;;
26319;SDS011;14024;52.226;5.200;2024-02-26T05:26:22;23.95;;;12.73;;
26319;SDS011;14024;52.226;5.200;2024-02-26T05:28:48;29.98;;;13.25;;
26319;SDS011;14024;52.226;5.200;2024-02-26T05:31:14;29.35;;;13.80;;
26319;SDS011;14024;52.226;5.200;2024-02-26T05:33:40;31.55;;;13.43;;
26319;SDS011;14024;52.226;5.200;2024-02-26T05:36:05;29.25;;;14.35;;
26319;SDS011;14024;52.226;5.200;2024-02-26T05:38:31;29.42;;;13.80;;
26319;SDS011;14024;52.226;5.200;2024-02-26T05:40:57;37.20;;;14.35;;
26319;SDS011;14024;52.226;5.200;2024-02-26T05:43:23;33.13;;;15.27;;
26319;SDS011;14024;52.226;5.200;2024-02-26T05:45:51;31.92;;;15.20;;
26319;SDS011;14024;52.226;5.200;2024-02-26T05:48:16;33.40;;;15.02;;
26319;SDS011;14024;52.226;5.200;2024-02-26T05:50:44;33.35;;;16.38;;
26319;SDS011;14024;52.226;5.200;2024-02-26T05:53:09;33.00;;;14.82;;
26319;SDS011;14024;52.226;5.200;2024-02-26T05:55:35;34.95;;;15.77;;
26319;SDS011;14024;52.226;5.200;2024-02-26T05:58:00;35.17;;;15.93;;
26319;SDS011;14024;52.226;5.200;2024-02-26T06:00:26;34.75;;;15.77;;
26319;SDS011;14024;52.226;5.200;2024-02-26T06:02:51;36.97;;;16.55;;
26319;SDS011;14024;52.226;5.200;2024-02-26T06:05:16;36.45;;;16.67;;
26319;SDS011;14024;52.226;5.200;2024-02-26T06:07:42;32.97;;;15.30;;
26319;SDS011;14024;52.226;5.200;2024-02-26T06:10:07;34.88;;;15.88;;
26319;SDS011;14024;52.226;5.200;2024-02-26T06:12:35;35.40;;;15.57;;
26319;SDS011;14024;52.226;5.200;2024-02-26T06:15:00;39.60;;;16.67;;
26319;SDS011;14024;52.226;5.200;2024-02-26T06:17:26;39.42;;;17.80;;
26319;SDS011;14024;52.226;5.200;2024-02-26T06:19:51;37.75;;;16.60;;
26319;SDS011;14024;52.226;5.200;2024-02-26T06:22:17;35.85;;;17.17;;
26319;SDS011;14024;52.226;5.200;2024-02-26T06:24:42;41.10;;;18.30;;
26319;SDS011;14024;52.226;5.200;2024-02-26T06:27:07;44.30;;;18.60;;
26319;SDS011;14024;52.226;5.200;2024-02-26T06:29:33;40.10;;;18.27;;
26319;SDS011;14024;52.226;5.200;2024-02-26T06:31:59;38.42;;;17.08;;
26319;SDS011;14024;52.226;5.200;2024-02-26T06:34:24;42.17;;;19.20;;
26319;SDS011;14024;52.226;5.200;2024-02-26T06:36:49;40.47;;;19.13;;
26319;SDS011;14024;52.226;5.200;2024-02-26T06:39:15;46.15;;;20.35;;
26319;SDS011;14024;52.226;5.200;2024-02-26T06:41:41;45.22;;;20.23;;
26319;SDS011;14024;52.226;5.200;2024-02-26T06:44:06;46.95;;;19.45;;
26319;SDS011;14024;52.226;5.200;2024-02-26T06:46:32;45.00;;;20.42;;
26319;SDS011;14024;52.226;5.200;2024-02-26T06:48:57;43.00;;;20.25;;
26319;SDS011;14024;52.226;5.200;2024-02-26T06:51:22;45.72;;;20.20;;
26319;SDS011;14024;52.226;5.200;2024-02-26T06:53:48;44.88;;;20.63;;
26319;SDS011;14024;52.226;5.200;2024-02-26T06:56:14;42.42;;;20.38;;
26319;SDS011;14024;52.226;5.200;2024-02-26T06:58:40;43.78;;;20.92;;
26319;SDS011;14024;52.226;5.200;2024-02-26T07:01:05;44.55;;;20.90;;
26319;SDS011;14024;52.226;5.200;2024-02-26T07:03:33;44.38;;;21.05;;
26319;SDS011;14024;52.226;5.200;2024-02-26T07:05:58;43.47;;;20.38;;
26319;SDS011;14024;52.226;5.200;2024-02-26T07:08:24;41.10;;;19.70;;
26319;SDS011;14024;52.226;5.200;2024-02-26T07:10:49;40.85;;;20.38;;
26319;SDS011;14024;52.226;5.200;2024-02-26T07:13:14;41.20;;;18.95;;
26319;SDS011;14024;52.226;5.200;2024-02-26T07:15:40;43.47;;;18.92;;
26319;SDS011;14024;52.226;5.200;2024-02-26T07:18:05;43.90;;;18.85;;
26319;SDS011;14024;52.226;5.200;2024-02-26T07:20:30;40.15;;;18.80;;
26319;SDS011;14024;52.226;5.200;2024-02-26T07:22:56;40.30;;;19.30;;
26319;SDS011;14024;52.226;5.200;2024-02-26T07:25:22;35.85;;;17.50;;
26319;SDS011;14024;52.226;5.200;2024-02-26T07:27:49;37.47;;;17.90;;
26319;SDS011;14024;52.226;5.200;2024-02-26T07:30:15;34.28;;;17.48;;
26319;SDS011;14024;52.226;5.200;2024-02-26T07:32:41;35.15;;;16.20;;
26319;SDS011;14024;52.226;5.200;2024-02-26T07:35:07;35.90;;;17.52;;
26319;SDS011;14024;52.226;5.200;2024-02-26T07:37:33;32.45;;;16.02;;
26319;SDS011;14024;52.226;5.200;2024-02-26T07:39:58;33.00;;;16.15;;
26319;SDS011;14024;52.226;5.200;2024-02-26T07:42:23;31.98;;;15.57;;
26319;SDS011;14024;52.226;5.200;2024-02-26T07:44:49;30.15;;;15.15;;
26319;SDS011;14024;52.226;5.200;2024-02-26T07:47:14;33.03;;;15.38;;
26319;SDS011;14024;52.226;5.200;2024-02-26T07:49:40;32.13;;;14.73;;
26319;SDS011;14024;52.226;5.200;2024-02-26T07:52:06;31.45;;;16.25;;
26319;SDS011;14024;52.226;5.200;2024-02-26T07:54:32;30.70;;;14.55;;
26319;SDS011;14024;52.226;5.200;2024-02-26T07:56:58;31.08;;;14.52;;
26319;SDS011;14024;52.226;5.200;2024-02-26T07:59:23;27.73;;;14.07;;
26319;SDS011;14024;52.226;5.200;2024-02-26T08:01:51;30.58;;;14.82;;
26319;SDS011;14024;52.226;5.200;2024-02-26T08:04:17;26.90;;;13.80;;
26319;SDS011;14024;52.226;5.200;2024-02-26T08:06:42;27.80;;;13.82;;
26319;SDS011;14024;52.226;5.200;2024-02-26T08:09:08;25.70;;;12.52;;
26319;SDS011;14024;52.226;5.200;2024-02-26T08:11:34;27.38;;;12.75;;
26319;SDS011;14024;52.226;5.200;2024-02-26T08:13:59;22.92;;;12.57;;
26319;SDS011;14024;52.226;5.200;2024-02-26T08:16:24;24.05;;;12.15;;
26319;SDS011;14024;52.226;5.200;2024-02-26T08:18:50;24.77;;;12.20;;
26319;SDS011;14024;52.226;5.200;2024-02-26T08:21:15;22.92;;;10.93;;
26319;SDS011;14024;52.226;5.200;2024-02-26T08:23:42;22.58;;;10.45;;
26319;SDS011;14024;52.226;5.200;2024-02-26T08:26:08;25.70;;;11.85;;
26319;SDS011;14024;52.226;5.200;2024-02-26T08:28:36;20.77;;;11.43;;
26319;SDS011;14024;52.226;5.200;2024-02-26T08:31:02;21.35;;;10.20;;
26319;SDS011;14024;52.226;5.200;2024-02-26T08:33:28;35.03;;;18.42;;
26319;SDS011;14024;52.226;5.200;2024-02-26T08:35:53;29.55;;;12.07;;
26319;SDS011;14024;52.226;5.200;2024-02-26T08:38:18;20.85;;;10.68;;
26319;SDS011;14024;52.226;5.200;2024-02-26T08:40:44;21.92;;;12.70;;
26319;SDS011;14024;52.226;5.200;2024-02-26T08:43:09;28.85;;;16.10;;
26319;SDS011;14024;52.226;5.200;2024-02-26T08:45:34;21.30;;;10.82;;
26319;SDS011;14024;52.226;5.200;2024-02-26T08:48:00;27.58;;;13.82;;
26319;SDS011;14024;52.226;5.200;2024-02-26T08:50:25;25.00;;;10.75;;
26319;SDS011;14024;52.226;5.200;2024-02-26T08:52:52;18.20;;;8.90;;
26319;SDS011;14024;52.226;5.200;2024-02-26T08:55:18;22.20;;;12.23;;
26319;SDS011;14024;52.226;5.200;2024-02-26T08:57:44;30.00;;;15.30;;
26319;SDS011;14024;52.226;5.200;2024-02-26T09:00:09;17.95;;;10.77;;
26319;SDS011;14024;52.226;5.200;2024-02-26T09:02:37;22.73;;;12.50;;
26319;SDS011;14024;52.226;5.200;2024-02-26T09:05:07;20.05;;;10.40;;
26319;SDS011;14024;52.226;5.200;2024-02-26T09:07:33;24.70;;;14.27;;
26319;SDS011;14024;52.226;5.200;2024-02-26T09:09:58;26.48;;;12.05;;
26319;SDS011;14024;52.226;5.200;2024-02-26T09:12:24;16.13;;;9.57;;
26319;SDS011;14024;52.226;5.200;2024-02-26T09:14:49;15.75;;;8.95;;
26319;SDS011;14024;52.226;5.200;2024-02-26T09:17:14;18.20;;;11.68;;
26319;SDS011;14024;52.226;5.200;2024-02-26T09:19:40;17.08;;;8.57;;
26319;SDS011;14024;52.226;5.200;2024-02-26T09:22:07;18.08;;;10.27;;
26319;SDS011;14024;52.226;5.200;2024-02-26T09:24:32;15.63;;;7.85;;
26319;SDS011;14024;52.226;5.200;2024-02-26T09:26:58;19.20;;;9.23;;
26319;SDS011;14024;52.226;5.200;2024-02-26T09:29:23;15.48;;;8.80;;
26319;SDS011;14024;52.226;5.200;2024-02-26T09:31:51;14.75;;;8.13;;
26319;SDS011;14024;52.226;5.200;2024-02-26T09:34:17;16.48;;;8.73;;
26319;SDS011;14024;52.226;5.200;2024-02-26T09:36:42;40.35;;;24.75;;
26319;SDS011;14024;52.226;5.200;2024-02-26T09:39:08;18.10;;;9.48;;
26319;SDS011;14024;52.226;5.200;2024-02-26T09:41:36;17.75;;;10.00;;
26319;SDS011;14024;52.226;5.200;2024-02-26T09:44:02;22.15;;;12.35;;
26319;SDS011;14024;52.226;5.200;2024-02-26T09:46:30;15.73;;;7.95;;
26319;SDS011;14024;52.226;5.200;2024-02-26T09:48:56;13.57;;;7.70;;
26319;SDS011;14024;52.226;5.200;2024-02-26T09:51:25;16.75;;;9.90;;
26319;SDS011;14024;52.226;5.200;2024-02-26T09:53:54;18.67;;;9.52;;
26319;SDS011;14024;52.226;5.200;2024-02-26T09:56:21;15.55;;;9.48;;
26319;SDS011;14024;52.226;5.200;2024-02-26T09:58:46;17.67;;;8.65;;
26319;SDS011;14024;52.226;5.200;2024-02-26T10:01:16;18.17;;;10.88;;
26319;SDS011;14024;52.226;5.200;2024-02-26T10:03:43;23.10;;;13.48;;
26319;SDS011;14024;52.226;5.200;2024-02-26T10:06:10;33.78;;;21.00;;
26319;SDS011;14024;52.226;5.200;2024-02-26T10:08:38;24.00;;;12.85;;
26319;SDS011;14024;52.226;5.200;2024-02-26T10:11:05;17.02;;;10.05;;
26319;SDS011;14024;52.226;5.200;2024-02-26T10:13:32;18.30;;;9.73;;
26319;SDS011;14024;52.226;5.200;2024-02-26T10:15:57;13.48;;;7.50;;
26319;SDS011;14024;52.226;5.200;2024-02-26T10:18:23;14.25;;;7.97;;
26319;SDS011;14024;52.226;5.200;2024-02-26T10:20:59;13.25;;;7.88;;
26319;SDS011;14024;52.226;5.200;2024-02-26T10:23:26;14.40;;;7.80;;
26319;SDS011;14024;52.226;5.200;2024-02-26T10:25:54;15.77;;;8.00;;
26319;SDS011;14024;52.226;5.200;2024-02-26T10:28:20;13.82;;;7.47;;
26319;SDS011;14024;52.226;5.200;2024-02-26T10:30:46;14.57;;;8.05;;
26319;SDS011;14024;52.226;5.200;2024-02-26T10:33:11;13.05;;;7.50;;
26319;SDS011;14024;52.226;5.200;2024-02-26T10:35:39;13.23;;;7.35;;
26319;SDS011;14024;52.226;5.200;2024-02-26T10:38:06;16.17;;;7.45;;
26319;SDS011;14024;52.226;5.200;2024-02-26T10:40:32;16.27;;;8.10;;
26319;SDS011;14024;52.226;5.200;2024-02-26T10:42:57;12.70;;;7.10;;
26319;SDS011;14024;52.226;5.200;2024-02-26T10:45:23;13.93;;;6.95;;
26319;SDS011;14024;52.226;5.200;2024-02-26T10:47:48;14.70;;;7.50;;
26319;SDS011;14024;52.226;5.200;2024-02-26T10:50:14;16.50;;;8.43;;
26319;SDS011;14024;52.226;5.200;2024-02-26T10:52:43;13.60;;;7.13;;
26319;SDS011;14024;52.226;5.200;2024-02-26T10:55:08;13.65;;;7.38;;
26319;SDS011;14024;52.226;5.200;2024-02-26T10:57:40;15.88;;;8.10;;
26319;SDS011;14024;52.226;5.200;2024-02-26T11:00:07;13.27;;;6.97;;
26319;SDS011;14024;52.226;5.200;2024-02-26T11:02:35;13.75;;;7.80;;
26319;SDS011;14024;52.226;5.200;2024-02-26T11:05:04;18.17;;;7.65;;
26319;SDS011;14024;52.226;5.200;2024-02-26T11:07:31;13.55;;;7.85;;
26319;SDS011;14024;52.226;5.200;2024-02-26T11:09:59;14.18;;;7.80;;
26319;SDS011;14024;52.226;5.200;2024-02-26T11:12:25;13.65;;;7.43;;
26319;SDS011;14024;52.226;5.200;2024-02-26T11:14:54;13.65;;;7.53;;
26319;SDS011;14024;52.226;5.200;2024-02-26T11:17:22;14.48;;;8.30;;
26319;SDS011;14024;52.226;5.200;2024-02-26T11:19:49;17.55;;;7.72;;
26319;SDS011;14024;52.226;5.200;2024-02-26T11:22:15;12.85;;;6.95;;
26319;SDS011;14024;52.226;5.200;2024-02-26T11:24:42;13.20;;;7.03;;
26319;SDS011;14024;52.226;5.200;2024-02-26T11:27:09;17.00;;;7.95;;
26319;SDS011;14024;52.226;5.200;2024-02-26T11:29:44;17.23;;;8.18;;
26319;SDS011;14024;52.226;5.200;2024-02-26T11:32:13;16.58;;;7.80;;
26319;SDS011;14024;52.226;5.200;2024-02-26T11:34:39;12.95;;;7.20;;
26319;SDS011;14024;52.226;5.200;2024-02-26T11:37:08;14.77;;;8.02;;
26319;SDS011;14024;52.226;5.200;2024-02-26T11:39:37;12.07;;;7.25;;
26319;SDS011;14024;52.226;5.200;2024-02-26T11:42:06;15.27;;;7.30;;
26319;SDS011;14024;52.226;5.200;2024-02-26T11:44:33;12.20;;;7.13;;
26319;SDS011;14024;52.226;5.200;2024-02-26T11:46:59;13.77;;;7.03;;
26319;SDS011;14024;52.226;5.200;2024-02-26T11:49:34;12.45;;;6.97;;
26319;SDS011;14024;52.226;5.200;2024-02-26T11:52:00;12.73;;;7.00;;
26319;SDS011;14024;52.226;5.200;2024-02-26T11:59:53;12.07;;;6.70;;
26319;SDS011;14024;52.226;5.200;2024-02-26T12:02:51;13.65;;;7.05;;
26319;SDS011;14024;52.226;5.200;2024-02-26T12:05:26;12.55;;;6.88;;
26319;SDS011;14024;52.226;5.200;2024-02-26T12:08:02;12.48;;;7.38;;
26319;SDS011;14024;52.226;5.200;2024-02-26T12:10:31;13.85;;;6.35;;
26319;SDS011;14024;52.226;5.200;2024-02-26T12:13:06;13.25;;;7.40;;
26319;SDS011;14024;52.226;5.200;2024-02-26T12:15:38;14.93;;;7.25;;
26319;SDS011;14024;52.226;5.200;2024-02-26T12:18:08;16.85;;;6.95;;
26319;SDS011;14024;52.226;5.200;2024-02-26T12:20:38;13.55;;;6.80;;
26319;SDS011;14024;52.226;5.200;2024-02-26T12:23:03;13.43;;;7.38;;
26319;SDS011;14024;52.226;5.200;2024-02-26T12:25:29;11.68;;;6.93;;
26319;SDS011;14024;52.226;5.200;2024-02-26T12:27:56;13.38;;;7.18;;
26319;SDS011;14024;52.226;5.200;2024-02-26T12:30:22;13.52;;;6.53;;
26319;SDS011;14024;52.226;5.200;2024-02-26T12:32:48;12.20;;;6.28;;
26319;SDS011;14024;52.226;5.200;2024-02-26T12:35:15;11.23;;;6.72;;
26319;SDS011;14024;52.226;5.200;2024-02-26T12:37:42;12.80;;;6.45;;
26319;SDS011;14024;52.226;5.200;2024-02-26T12:40:11;11.05;;;6.20;;
26319;SDS011;14024;52.226;5.200;2024-02-26T12:42:38;10.07;;;5.82;;
26319;SDS011;14024;52.226;5.200;2024-02-26T12:45:07;10.80;;;6.90;;
26319;SDS011;14024;52.226;5.200;2024-02-26T12:47:38;11.65;;;6.72;;
26319;SDS011;14024;52.226;5.200;2024-02-26T12:50:04;10.00;;;6.47;;
26319;SDS011;14024;52.226;5.200;2024-02-26T12:52:31;12.05;;;6.88;;
26319;SDS011;14024;52.226;5.200;2024-02-26T12:54:58;10.32;;;6.45;;
26319;SDS011;14024;52.226;5.200;2024-02-26T12:57:23;10.55;;;6.35;;
26319;SDS011;14024;52.226;5.200;2024-02-26T12:59:49;11.57;;;6.28;;
26319;SDS011;14024;52.226;5.200;2024-02-26T13:02:15;10.15;;;5.63;;
26319;SDS011;14024;52.226;5.200;2024-02-26T13:04:40;10.80;;;6.20;;
26319;SDS011;14024;52.226;5.200;2024-02-26T13:07:06;11.30;;;6.40;;
26319;SDS011;14024;52.226;5.200;2024-02-26T13:09:34;11.25;;;6.30;;
26319;SDS011;14024;52.226;5.200;2024-02-26T13:12:06;12.38;;;6.75;;
26319;SDS011;14024;52.226;5.200;2024-02-26T13:14:32;11.95;;;6.82;;
26319;SDS011;14024;52.226;5.200;2024-02-26T13:16:59;11.35;;;6.13;;
26319;SDS011;14024;52.226;5.200;2024-02-26T13:19:25;9.20;;;5.68;;
26319;SDS011;14024;52.226;5.200;2024-02-26T13:21:51;11.63;;;6.55;;
26319;SDS011;14024;52.226;5.200;2024-02-26T13:24:16;8.90;;;5.25;;
26319;SDS011;14024;52.226;5.200;2024-02-26T13:26:43;10.75;;;5.70;;
26319;SDS011;14024;52.226;5.200;2024-02-26T13:29:08;8.57;;;5.18;;
26319;SDS011;14024;52.226;5.200;2024-02-26T13:31:40;9.70;;;5.75;;
26319;SDS011;14024;52.226;5.200;2024-02-26T13:34:05;11.60;;;6.18;;
26319;SDS011;14024;52.226;5.200;2024-02-26T13:36:31;9.13;;;5.70;;
26319;SDS011;14024;52.226;5.200;2024-02-26T13:38:56;10.50;;;5.47;;
26319;SDS011;14024;52.226;5.200;2024-02-26T13:41:22;10.43;;;5.38;;
26319;SDS011;14024;52.226;5.200;2024-02-26T13:43:48;9.80;;;5.20;;
26319;SDS011;14024;52.226;5.200;2024-02-26T13:46:13;11.90;;;5.50;;
26319;SDS011;14024;52.226;5.200;2024-02-26T13:48:40;9.32;;;5.57;;
26319;SDS011;14024;52.226;5.200;2024-02-26T13:51:06;10.18;;;5.85;;
26319;SDS011;14024;52.226;5.200;2024-02-26T13:53:32;8.23;;;5.25;;
26319;SDS011;14024;52.226;5.200;2024-02-26T13:55:57;10.25;;;5.55;;
26319;SDS011;14024;52.226;5.200;2024-02-26T13:58:23;10.07;;;5.05;;
26319;SDS011;14024;52.226;5.200;2024-02-26T14:00:49;8.25;;;5.07;;
26319;SDS011;14024;52.226;5.200;2024-02-26T14:03:14;9.15;;;5.25;;
26319;SDS011;14024;52.226;5.200;2024-02-26T14:05:41;11.43;;;5.18;;
26319;SDS011;14024;52.226;5.200;2024-02-26T14:08:07;10.80;;;6.05;;
26319;SDS011;14024;52.226;5.200;2024-02-26T14:10:32;8.13;;;4.53;;
26319;SDS011;14024;52.226;5.200;2024-02-26T14:12:58;9.07;;;5.05;;
26319;SDS011;14024;52.226;5.200;2024-02-26T14:15:24;7.57;;;4.85;;
26319;SDS011;14024;52.226;5.200;2024-02-26T14:17:53;11.40;;;5.95;;
26319;SDS011;14024;52.226;5.200;2024-02-26T14:20:21;6.82;;;4.35;;
26319;SDS011;14024;52.226;5.200;2024-02-26T14:22:50;9.52;;;4.78;;
26319;SDS011;14024;52.226;5.200;2024-02-26T14:25:19;11.95;;;5.10;;
26319;SDS011;14024;52.226;5.200;2024-02-26T14:27:47;8.40;;;4.68;;